createdAt,value
2017-09-24T00:00:29.775Z,14.30
2017-09-24T00:02:56.435Z,14.20
2017-09-24T00:05:23.835Z,14.30
2017-09-24T00:07:50.655Z,14.20
2017-09-24T00:10:17.414Z,14.20
2017-09-24T00:12:44.813Z,14.20
2017-09-24T00:15:12.289Z,14.20
2017-09-24T00:17:39.718Z,14.20
2017-09-24T00:20:06.483Z,14.20
2017-09-24T00:22:33.095Z,14.20
2017-09-24T00:24:59.786Z,14.20
2017-09-24T00:27:26.498Z,14.20
2017-09-24T00:29:53.112Z,14.30
2017-09-24T00:32:19.785Z,14.20
2017-09-24T00:34:46.391Z,14.20
2017-09-24T00:37:13.289Z,14.30
2017-09-24T00:39:39.952Z,14.30
2017-09-24T00:42:06.607Z,14.30
2017-09-24T00:44:33.125Z,14.20
2017-09-24T00:46:59.764Z,14.20
2017-09-24T00:49:26.330Z,14.30
2017-09-24T00:51:53.014Z,14.30
2017-09-24T00:54:19.665Z,14.30
2017-09-24T00:56:46.394Z,14.30
2017-09-24T00:59:13.870Z,14.30
2017-09-24T01:01:40.801Z,14.30
2017-09-24T01:04:07.579Z,14.40
2017-09-24T01:06:34.457Z,14.40
2017-09-24T01:09:01.140Z,14.40
2017-09-24T01:11:27.784Z,14.40
2017-09-24T01:13:54.748Z,14.40
2017-09-24T01:16:21.408Z,14.30
2017-09-24T01:18:48.921Z,14.40
2017-09-24T01:21:15.624Z,14.30
2017-09-24T01:23:42.328Z,14.40
2017-09-24T01:26:08.969Z,14.40
2017-09-24T01:28:36.457Z,14.40
2017-09-24T01:31:03.268Z,14.40
2017-09-24T01:33:29.981Z,14.50
2017-09-24T01:35:56.863Z,14.40
2017-09-24T01:38:23.607Z,14.40
2017-09-24T01:40:50.207Z,14.40
2017-09-24T01:43:16.791Z,14.40
2017-09-24T01:45:43.390Z,14.40
2017-09-24T01:48:10.115Z,14.40
2017-09-24T01:50:37.288Z,14.40
2017-09-24T01:53:03.863Z,14.40
2017-09-24T01:55:31.200Z,14.40
2017-09-24T01:57:59.479Z,14.40
2017-09-24T02:00:26.299Z,14.40
2017-09-24T02:02:53.772Z,14.40
2017-09-24T02:05:21.271Z,14.40
2017-09-24T02:07:47.986Z,14.40
2017-09-24T02:10:14.624Z,14.40
2017-09-24T02:12:41.291Z,14.40
2017-09-24T02:15:07.960Z,14.40
2017-09-24T02:17:34.607Z,14.40
2017-09-24T02:20:02.623Z,14.40
2017-09-24T02:22:29.370Z,14.30
2017-09-24T02:24:56.323Z,14.40
2017-09-24T02:27:23.767Z,14.40
2017-09-24T02:29:50.307Z,14.40
2017-09-24T02:32:17.044Z,14.40
2017-09-24T02:34:43.563Z,14.40
2017-09-24T02:37:10.159Z,14.40
2017-09-24T02:39:36.797Z,14.40
2017-09-24T02:42:03.846Z,14.30
2017-09-24T02:44:30.467Z,14.30
2017-09-24T02:46:57.218Z,14.40
2017-09-24T02:49:24.763Z,14.40
2017-09-24T02:51:51.468Z,14.40
2017-09-24T02:54:18.275Z,14.40
2017-09-24T02:56:45.052Z,14.30
2017-09-24T02:59:12.454Z,14.40
2017-09-24T03:01:39.031Z,14.40
2017-09-24T03:04:05.765Z,14.40
2017-09-24T03:06:32.336Z,14.40
2017-09-24T03:08:59.900Z,14.30
2017-09-24T03:11:26.702Z,14.30
2017-09-24T03:13:54.038Z,14.40
2017-09-24T03:16:20.856Z,14.30
2017-09-24T03:18:47.418Z,14.40
2017-09-24T03:21:15.037Z,14.40
2017-09-24T03:23:41.643Z,14.40
2017-09-24T03:26:08.288Z,14.40
2017-09-24T03:28:35.731Z,14.40
2017-09-24T03:31:02.480Z,14.40
2017-09-24T03:33:29.300Z,14.40
2017-09-24T03:35:56.853Z,14.40
2017-09-24T03:38:23.620Z,14.40
2017-09-24T03:40:51.024Z,14.30
2017-09-24T03:43:17.577Z,14.40
2017-09-24T03:45:44.931Z,14.30
2017-09-24T03:48:11.692Z,14.30
2017-09-24T03:50:38.436Z,14.30
2017-09-24T03:53:05.217Z,14.40
2017-09-24T03:55:32.067Z,14.40
2017-09-24T03:57:58.678Z,14.40
2017-09-24T04:00:25.503Z,14.40
2017-09-24T04:02:53.030Z,14.30
2017-09-24T04:05:19.707Z,14.30
2017-09-24T04:07:46.221Z,14.40
2017-09-24T04:10:13.252Z,14.40
2017-09-24T04:12:39.916Z,14.40
2017-09-24T04:15:07.219Z,14.40
2017-09-24T04:17:33.811Z,14.30
2017-09-24T04:20:00.632Z,14.30
2017-09-24T04:22:27.516Z,14.40
2017-09-24T04:24:54.457Z,14.30
2017-09-24T04:27:22.071Z,14.40
2017-09-24T04:29:48.851Z,14.30
2017-09-24T04:32:15.892Z,14.40
2017-09-24T04:34:43.349Z,14.30
2017-09-24T04:37:10.088Z,14.30
2017-09-24T04:39:36.764Z,14.30
2017-09-24T04:42:03.571Z,14.30
2017-09-24T04:44:30.191Z,14.30
2017-09-24T04:46:56.909Z,14.30
2017-09-24T04:49:23.569Z,14.30
2017-09-24T04:51:51.037Z,14.30
2017-09-24T04:54:18.308Z,14.30
2017-09-24T04:56:45.049Z,14.30
2017-09-24T04:59:11.683Z,14.30
2017-09-24T05:01:38.283Z,14.30
2017-09-24T05:04:05.123Z,14.30
2017-09-24T05:06:31.704Z,14.30
2017-09-24T05:08:58.419Z,14.30
2017-09-24T05:11:25.271Z,14.30
2017-09-24T05:13:52.014Z,14.30
2017-09-24T05:16:18.931Z,14.30
2017-09-24T05:18:45.542Z,14.40
2017-09-24T05:21:12.907Z,14.40
2017-09-24T05:23:40.269Z,14.40
2017-09-24T05:26:07.093Z,14.30
2017-09-24T05:28:34.414Z,14.40
2017-09-24T05:31:01.998Z,14.40
2017-09-24T05:33:28.641Z,14.40
2017-09-24T05:35:55.407Z,14.40
2017-09-24T05:38:22.164Z,14.40
2017-09-24T05:40:48.831Z,14.40
2017-09-24T05:43:15.531Z,14.40
2017-09-24T05:45:42.349Z,14.50
2017-09-24T05:48:09.188Z,14.40
2017-09-24T05:50:35.964Z,14.40
2017-09-24T05:53:02.699Z,14.40
2017-09-24T05:55:29.357Z,14.40
2017-09-24T05:57:56.079Z,14.40
2017-09-24T06:00:23.012Z,14.40
2017-09-24T06:02:49.636Z,14.40
2017-09-24T06:05:16.380Z,14.50
2017-09-24T06:07:43.126Z,14.50
2017-09-24T06:10:09.697Z,14.50
2017-09-24T06:12:37.007Z,14.50
2017-09-24T06:15:03.580Z,14.50
2017-09-24T06:17:31.093Z,14.50
2017-09-24T06:19:57.833Z,14.50
2017-09-24T06:22:24.626Z,14.60
2017-09-24T06:24:51.213Z,14.60
2017-09-24T06:27:17.912Z,14.60
2017-09-24T06:29:45.591Z,14.50
2017-09-24T06:32:13.119Z,14.50
2017-09-24T06:34:39.624Z,14.50
2017-09-24T06:37:06.379Z,14.60
2017-09-24T06:39:32.961Z,14.60
2017-09-24T06:42:00.482Z,14.70
2017-09-24T06:44:27.144Z,14.70
2017-09-24T06:46:54.518Z,14.80
2017-09-24T06:49:21.207Z,14.70
2017-09-24T06:51:48.653Z,14.90
2017-09-24T06:54:15.269Z,14.80
2017-09-24T06:56:42.048Z,14.90
2017-09-24T06:59:08.765Z,15.00
2017-09-24T07:01:35.414Z,15.00
2017-09-24T07:04:02.217Z,15.10
2017-09-24T07:06:29.745Z,15.30
2017-09-24T07:08:57.241Z,15.40
2017-09-24T07:11:24.691Z,15.40
2017-09-24T07:13:51.348Z,15.40
2017-09-24T07:16:18.023Z,15.40
2017-09-24T07:18:45.431Z,15.30
2017-09-24T07:21:12.331Z,15.20
2017-09-24T07:23:39.007Z,15.20
2017-09-24T07:26:05.880Z,15.10
2017-09-24T07:28:33.348Z,15.10
2017-09-24T07:31:00.016Z,15.10
2017-09-24T07:33:26.680Z,15.10
2017-09-24T07:35:53.435Z,15.20
2017-09-24T07:38:20.003Z,15.20
2017-09-24T07:40:46.771Z,15.30
2017-09-24T07:43:13.521Z,15.40
2017-09-24T07:45:41.025Z,15.60
2017-09-24T07:48:07.829Z,15.60
2017-09-24T07:50:34.633Z,15.80
2017-09-24T07:53:02.222Z,16.10
2017-09-24T07:55:29.549Z,16.30
2017-09-24T07:57:56.697Z,16.30
2017-09-24T08:00:24.213Z,16.40
2017-09-24T08:02:51.549Z,16.40
2017-09-24T08:05:19.003Z,16.30
2017-09-24T08:07:45.620Z,16.30
2017-09-24T08:10:12.332Z,16.20
2017-09-24T08:12:38.918Z,16.20
2017-09-24T08:15:05.661Z,16.10
2017-09-24T08:17:32.303Z,16.00
2017-09-24T08:19:59.018Z,16.00
2017-09-24T08:22:25.965Z,16.00
2017-09-24T08:24:52.796Z,16.10
2017-09-24T08:27:20.361Z,16.10
2017-09-24T08:29:47.085Z,16.10
2017-09-24T08:32:13.736Z,16.20
2017-09-24T08:34:41.423Z,16.60
2017-09-24T08:37:08.093Z,16.60
2017-09-24T08:39:35.836Z,16.80
2017-09-24T08:42:03.726Z,16.80
2017-09-24T08:44:31.341Z,16.70
2017-09-24T08:46:58.247Z,16.60
2017-09-24T08:49:25.052Z,16.80
2017-09-24T08:51:52.648Z,16.90
2017-09-24T08:54:20.333Z,16.90
2017-09-24T08:56:47.090Z,16.80
2017-09-24T08:59:14.498Z,16.80
2017-09-24T09:01:42.361Z,16.70
2017-09-24T09:04:09.208Z,16.80
2017-09-24T09:06:36.120Z,17.10
2017-09-24T09:09:03.170Z,17.30
2017-09-24T09:11:30.067Z,17.50
2017-09-24T09:13:56.827Z,17.80
2017-09-24T09:16:25.084Z,18.20
2017-09-24T09:18:52.564Z,18.60
2017-09-24T09:21:19.394Z,19.10
2017-09-24T09:23:46.669Z,19.40
2017-09-24T09:26:14.164Z,19.30
2017-09-24T09:28:40.851Z,19.20
2017-09-24T09:31:07.533Z,19.10
2017-09-24T09:33:34.302Z,19.10
2017-09-24T09:36:01.664Z,19.20
2017-09-24T09:38:28.299Z,19.20
2017-09-24T09:40:54.853Z,19.00
2017-09-24T09:43:33.816Z,18.90
2017-09-24T09:46:00.639Z,18.90
2017-09-24T09:48:27.226Z,19.30
2017-09-24T09:50:53.813Z,20.10
2017-09-24T09:53:20.483Z,20.70
2017-09-24T09:55:47.194Z,20.90
2017-09-24T09:58:13.962Z,20.60
2017-09-24T10:00:42.815Z,20.10
2017-09-24T10:03:09.692Z,19.70
2017-09-24T10:05:36.466Z,19.90
2017-09-24T10:08:18.216Z,19.90
2017-09-24T10:10:45.046Z,20.00
2017-09-24T10:13:11.716Z,20.90
2017-09-24T10:15:38.287Z,21.50
2017-09-24T10:18:05.340Z,22.00
2017-09-24T10:20:31.960Z,23.60
2017-09-24T10:22:58.990Z,23.90
2017-09-24T10:25:25.808Z,23.30
2017-09-24T10:27:52.591Z,24.50
2017-09-24T10:30:31.363Z,25.00
2017-09-24T10:32:57.992Z,26.00
2017-09-24T10:35:24.692Z,25.50
2017-09-24T10:37:51.442Z,24.10
2017-09-24T10:40:18.064Z,23.90
2017-09-24T10:42:44.793Z,25.60
2017-09-24T10:45:11.571Z,27.20
2017-09-24T10:47:39.067Z,27.50
2017-09-24T10:50:05.649Z,27.40
2017-09-24T10:52:32.367Z,27.60
2017-09-24T10:54:59.013Z,27.00
2017-09-24T10:57:25.723Z,26.60
2017-09-24T10:59:52.391Z,26.30
2017-09-24T11:02:19.211Z,25.80
2017-09-24T11:04:45.985Z,25.40
2017-09-24T11:07:13.456Z,27.40
2017-09-24T11:09:39.958Z,27.30
2017-09-24T11:12:06.597Z,28.20
2017-09-24T11:14:33.374Z,28.60
2017-09-24T11:17:00.139Z,29.40
2017-09-24T11:19:27.732Z,29.70
2017-09-24T11:21:54.537Z,29.60
2017-09-24T11:24:21.072Z,29.80
2017-09-24T11:26:47.645Z,29.90
2017-09-24T11:29:15.220Z,26.30
2017-09-24T11:31:41.949Z,26.20
2017-09-24T11:34:08.681Z,25.60
2017-09-24T11:36:35.395Z,25.20
2017-09-24T11:39:02.901Z,26.90
2017-09-24T11:41:29.768Z,26.90
2017-09-24T11:43:57.286Z,28.50
2017-09-24T11:46:24.632Z,29.10
2017-09-24T11:48:51.417Z,29.00
2017-09-24T11:51:18.197Z,28.70
2017-09-24T11:53:44.909Z,27.80
2017-09-24T11:56:11.480Z,26.50
2017-09-24T11:58:38.083Z,26.90
2017-09-24T12:01:04.881Z,27.90
2017-09-24T12:03:31.871Z,27.00
2017-09-24T12:05:58.546Z,27.90
2017-09-24T12:08:25.133Z,28.90
2017-09-24T12:10:51.780Z,27.90
2017-09-24T12:13:18.423Z,28.50
2017-09-24T12:15:45.194Z,28.40
2017-09-24T12:18:11.742Z,28.70
2017-09-24T12:20:38.520Z,28.30
2017-09-24T12:23:05.186Z,27.10
2017-09-24T12:25:31.989Z,25.90
2017-09-24T12:27:58.637Z,25.40
2017-09-24T12:30:25.301Z,25.30
2017-09-24T12:32:51.946Z,26.60
2017-09-24T12:35:18.843Z,27.60
2017-09-24T12:37:45.563Z,28.30
2017-09-24T12:40:12.345Z,28.80
2017-09-24T12:42:39.604Z,24.60
2017-09-24T12:45:06.357Z,24.50
2017-09-24T12:47:32.919Z,23.80
2017-09-24T12:49:59.452Z,23.60
2017-09-24T12:52:26.308Z,23.80
2017-09-24T12:54:53.763Z,23.00
2017-09-24T12:57:20.508Z,22.90
2017-09-24T12:59:47.093Z,23.00
2017-09-24T13:02:13.706Z,23.00
2017-09-24T13:04:41.551Z,22.90
2017-09-24T13:07:09.174Z,22.10
2017-09-24T13:09:35.767Z,22.10
2017-09-24T13:12:02.545Z,21.60
2017-09-24T13:14:29.410Z,21.00
2017-09-24T13:16:56.000Z,20.70
2017-09-24T13:19:23.384Z,22.20
2017-09-24T13:21:50.156Z,22.20
2017-09-24T13:24:17.658Z,25.80
2017-09-24T13:26:44.380Z,25.70
2017-09-24T13:29:11.111Z,24.20
2017-09-24T13:31:38.569Z,22.90
2017-09-24T13:34:05.256Z,22.80
2017-09-24T13:36:31.952Z,24.20
2017-09-24T13:38:58.478Z,25.40
2017-09-24T13:41:25.136Z,27.10
2017-09-24T13:43:51.733Z,28.20
2017-09-24T13:46:18.419Z,28.50
2017-09-24T13:48:45.166Z,27.60
2017-09-24T13:51:12.699Z,27.00
2017-09-24T13:53:39.369Z,27.00
2017-09-24T13:56:06.251Z,27.30
2017-09-24T13:58:32.931Z,27.80
2017-09-24T14:00:59.768Z,28.40
2017-09-24T14:03:26.528Z,28.90
2017-09-24T14:05:54.262Z,27.50
2017-09-24T14:08:21.027Z,27.40
2017-09-24T14:10:47.932Z,24.80
2017-09-24T14:13:14.620Z,23.10
2017-09-24T14:15:42.075Z,22.00
2017-09-24T14:18:08.661Z,21.90
2017-09-24T14:20:35.388Z,22.70
2017-09-24T14:23:02.055Z,24.10
2017-09-24T14:25:28.736Z,24.90
2017-09-24T14:27:57.156Z,26.00
2017-09-24T14:30:24.037Z,26.60
2017-09-24T14:32:50.723Z,26.90
2017-09-24T14:35:17.343Z,27.00
2017-09-24T14:37:43.995Z,26.30
2017-09-24T14:40:10.923Z,25.70
2017-09-24T14:42:37.483Z,24.70
2017-09-24T14:45:04.092Z,23.90
2017-09-24T14:47:30.967Z,23.40
2017-09-24T14:49:57.539Z,22.60
2017-09-24T14:52:24.180Z,22.00
2017-09-24T14:54:50.899Z,21.70
2017-09-24T14:57:17.421Z,21.70
2017-09-24T14:59:44.061Z,21.50
2017-09-24T15:02:10.770Z,21.40
2017-09-24T15:04:37.401Z,21.50
2017-09-24T15:07:04.272Z,21.30
2017-09-24T15:09:31.144Z,21.20
2017-09-24T15:11:58.484Z,21.70
2017-09-24T15:14:25.172Z,21.60
2017-09-24T15:16:51.990Z,22.20
2017-09-24T15:19:18.760Z,22.20
2017-09-24T15:21:45.657Z,22.30
2017-09-24T15:24:12.619Z,22.60
2017-09-24T15:26:39.398Z,22.80
2017-09-24T15:29:06.064Z,23.10
2017-09-24T15:31:32.660Z,23.50
2017-09-24T15:33:59.446Z,23.70
2017-09-24T15:36:26.089Z,24.00
2017-09-24T15:38:53.037Z,24.30
2017-09-24T15:41:19.917Z,24.50
2017-09-24T15:43:47.385Z,24.60
2017-09-24T15:46:15.003Z,24.70
2017-09-24T15:48:41.756Z,24.60
2017-09-24T15:51:08.412Z,24.80
2017-09-24T15:53:35.148Z,24.50
2017-09-24T15:56:01.842Z,24.30
2017-09-24T15:58:28.592Z,23.80
2017-09-24T16:00:55.309Z,23.30
2017-09-24T16:03:22.091Z,22.80
2017-09-24T16:05:48.823Z,22.50
2017-09-24T16:08:15.722Z,22.30
2017-09-24T16:10:42.359Z,22.00
2017-09-24T16:13:09.022Z,21.70
2017-09-24T16:15:35.845Z,21.50
2017-09-24T16:18:03.045Z,21.70
2017-09-24T16:20:30.646Z,21.80
2017-09-24T16:22:57.403Z,21.70
2017-09-24T16:25:24.547Z,21.70
2017-09-24T16:27:51.363Z,21.70
2017-09-24T16:30:18.323Z,21.50
2017-09-24T16:32:45.099Z,21.10
2017-09-24T16:35:13.036Z,20.80
2017-09-24T16:37:39.754Z,20.60
2017-09-24T16:40:06.459Z,20.40
2017-09-24T16:42:33.121Z,20.10
2017-09-24T16:45:00.702Z,19.70
2017-09-24T16:47:28.019Z,19.10
2017-09-24T16:49:54.855Z,19.00
2017-09-24T16:52:21.918Z,18.70
2017-09-24T16:54:48.577Z,18.40
2017-09-24T16:57:15.489Z,18.10
2017-09-24T16:59:42.168Z,17.80
2017-09-24T17:02:09.235Z,17.60
2017-09-24T17:04:35.867Z,17.40
2017-09-24T17:07:02.927Z,17.20
2017-09-24T17:09:29.957Z,17.00
2017-09-24T17:11:56.745Z,16.80
2017-09-24T17:14:23.325Z,16.80
2017-09-24T17:16:50.005Z,16.60
2017-09-24T17:19:16.695Z,16.40
2017-09-24T17:21:43.890Z,16.40
2017-09-24T17:24:10.607Z,16.20
2017-09-24T17:26:38.220Z,16.10
2017-09-24T17:29:05.568Z,15.90
2017-09-24T17:31:32.249Z,15.80
2017-09-24T17:33:59.585Z,15.70
2017-09-24T17:36:26.517Z,15.60
2017-09-24T17:38:54.096Z,15.50
2017-09-24T17:41:21.528Z,15.30
2017-09-24T17:43:48.333Z,15.30
2017-09-24T17:46:15.560Z,15.30
2017-09-24T17:48:43.942Z,15.20
2017-09-24T17:51:10.659Z,15.10
2017-09-24T17:53:37.439Z,15.00
2017-09-24T17:56:04.318Z,15.10
2017-09-24T17:58:31.039Z,15.10
2017-09-24T18:00:57.837Z,15.00
2017-09-24T18:03:24.765Z,15.00
2017-09-24T18:05:52.174Z,14.90
2017-09-24T18:08:18.988Z,14.90
2017-09-24T18:10:46.071Z,14.90
2017-09-24T18:13:12.753Z,14.80
2017-09-24T18:15:40.247Z,14.80
2017-09-24T18:18:06.950Z,14.80
2017-09-24T18:20:34.664Z,14.70
2017-09-24T18:23:02.189Z,14.70
2017-09-24T18:25:29.180Z,14.70
2017-09-24T18:27:55.814Z,14.70
2017-09-24T18:30:23.571Z,14.80
2017-09-24T18:32:50.270Z,14.80
2017-09-24T18:35:17.050Z,14.90
2017-09-24T18:37:43.898Z,15.00
2017-09-24T18:40:11.917Z,15.00
2017-09-24T18:42:39.578Z,15.00
2017-09-24T18:45:06.328Z,15.00
2017-09-24T18:47:33.962Z,15.00
2017-09-24T18:50:01.420Z,15.10
2017-09-24T18:52:29.007Z,15.10
2017-09-24T18:54:55.810Z,15.10
2017-09-24T18:57:22.680Z,15.10
2017-09-24T18:59:49.569Z,15.10
2017-09-24T19:02:16.427Z,15.10
2017-09-24T19:04:44.124Z,15.10
2017-09-24T19:07:11.835Z,15.20
2017-09-24T19:09:39.497Z,15.10
2017-09-24T19:12:06.799Z,15.20
2017-09-24T19:14:33.470Z,15.20
2017-09-24T19:17:01.092Z,15.20
2017-09-24T19:19:28.179Z,15.20
2017-09-24T19:21:55.488Z,15.20
2017-09-24T19:24:23.355Z,15.20
2017-09-24T19:26:50.303Z,15.10
2017-09-24T19:29:17.005Z,15.20
2017-09-24T19:31:44.280Z,15.20
2017-09-24T19:34:10.909Z,15.20
2017-09-24T19:36:37.701Z,15.20
2017-09-24T19:39:04.459Z,15.20
2017-09-24T19:41:32.046Z,15.20
2017-09-24T19:43:58.708Z,15.10
2017-09-24T19:46:25.717Z,15.10
2017-09-24T19:48:52.615Z,15.20
2017-09-24T19:51:19.353Z,15.20
2017-09-24T19:53:45.956Z,15.20
2017-09-24T19:56:12.752Z,15.20
2017-09-24T19:58:39.563Z,15.20
2017-09-24T20:01:06.574Z,15.30
2017-09-24T20:03:33.372Z,15.20
2017-09-24T20:06:00.289Z,15.30
2017-09-24T20:08:27.197Z,15.30
2017-09-24T20:10:54.059Z,15.30
2017-09-24T20:15:54.952Z,15.40
2017-09-24T20:18:21.511Z,15.30
2017-09-24T20:20:49.376Z,15.30
2017-09-24T20:23:18.132Z,15.30
2017-09-24T20:25:45.531Z,15.30
2017-09-24T20:28:12.240Z,15.20
2017-09-24T20:30:39.725Z,15.30
2017-09-24T20:33:06.379Z,15.30
2017-09-24T20:35:32.994Z,15.40
2017-09-24T20:37:59.624Z,15.30
2017-09-24T20:40:26.230Z,15.40
2017-09-24T20:42:52.968Z,15.30
2017-09-24T20:45:19.545Z,15.40
2017-09-24T20:47:46.157Z,15.40
2017-09-24T20:50:12.726Z,15.40
2017-09-24T20:52:39.268Z,15.40
2017-09-24T20:55:06.053Z,15.40
2017-09-24T20:57:32.909Z,15.40
2017-09-24T20:59:59.530Z,15.50
2017-09-24T21:02:26.361Z,15.50
2017-09-24T21:04:52.937Z,15.50
2017-09-24T21:07:19.549Z,15.50
2017-09-24T21:09:46.103Z,15.50
2017-09-24T21:12:12.837Z,15.50
2017-09-24T21:14:40.689Z,15.50
2017-09-24T21:17:07.326Z,15.50
2017-09-24T21:19:34.171Z,15.50
2017-09-24T21:22:00.802Z,15.50
2017-09-24T21:24:27.319Z,15.50
2017-09-24T21:26:53.984Z,15.50
2017-09-24T21:29:20.636Z,15.50
2017-09-24T21:31:47.187Z,15.50
2017-09-24T21:34:15.845Z,15.60
2017-09-24T21:36:42.768Z,15.50
2017-09-24T21:39:09.683Z,15.50
2017-09-24T21:41:36.285Z,15.60
2017-09-24T21:44:03.575Z,15.50
2017-09-24T21:46:30.642Z,15.50
2017-09-24T21:48:57.480Z,15.50
2017-09-24T21:51:24.135Z,15.50
2017-09-24T21:53:50.797Z,15.40
2017-09-24T21:56:18.058Z,15.40
2017-09-24T21:58:45.828Z,15.40
2017-09-24T22:01:12.671Z,15.40
2017-09-24T22:03:39.707Z,15.40
2017-09-24T22:06:07.230Z,15.40
2017-09-24T22:08:34.123Z,15.30
2017-09-24T22:11:00.900Z,15.30
2017-09-24T22:13:28.170Z,15.30
2017-09-24T22:15:55.232Z,15.30
2017-09-24T22:18:22.589Z,15.30
2017-09-24T22:20:49.233Z,15.30
2017-09-24T22:23:15.792Z,15.30
2017-09-24T22:25:42.439Z,15.40
2017-09-24T22:28:09.176Z,15.30
2017-09-24T22:30:36.519Z,15.40
2017-09-24T22:33:03.257Z,15.30
2017-09-24T22:35:30.771Z,15.30
2017-09-24T22:37:57.561Z,15.30
2017-09-24T22:40:24.218Z,15.20
2017-09-24T22:42:50.960Z,15.20
2017-09-24T22:45:17.666Z,15.10
2017-09-24T22:47:45.230Z,15.10
2017-09-24T22:50:12.124Z,15.00
2017-09-24T22:52:39.546Z,15.10
2017-09-24T22:55:06.193Z,15.00
2017-09-24T22:57:33.756Z,15.00
2017-09-24T23:00:00.473Z,15.00
2017-09-24T23:02:27.215Z,15.00
2017-09-24T23:04:53.872Z,15.00
2017-09-24T23:07:20.549Z,15.00
2017-09-24T23:09:47.263Z,15.00
2017-09-24T23:12:14.732Z,15.00
2017-09-24T23:14:41.446Z,15.00
2017-09-24T23:17:08.904Z,15.00
2017-09-24T23:19:35.620Z,15.00
2017-09-24T23:22:02.495Z,15.10
2017-09-24T23:24:29.473Z,15.00
2017-09-24T23:26:56.309Z,15.10
2017-09-24T23:29:23.084Z,15.10
2017-09-24T23:31:49.826Z,15.10
2017-09-24T23:34:17.579Z,15.00
2017-09-24T23:36:44.357Z,15.00
2017-09-24T23:39:11.150Z,15.10
2017-09-24T23:41:38.902Z,15.00
2017-09-24T23:44:05.508Z,15.00
2017-09-24T23:46:32.143Z,15.00
2017-09-24T23:48:58.891Z,15.00
2017-09-24T23:51:26.502Z,15.00
2017-09-24T23:53:53.851Z,15.00
2017-09-24T23:56:20.849Z,15.00
2017-09-24T23:58:47.414Z,15.00
